sensor_id;sensor_type;location;lat;lon;timestamp;temperature;humidity
26990;DHT22;14537;47.788;11.858;2023-04-01T00:01:19;7.00;99.90
26990;DHT22;14537;47.788;11.858;2023-04-01T00:03:45;7.00;99.90
26990;DHT22;14537;47.788;11.858;2023-04-01T00:06:15;7.00;99.90
26990;DHT22;14537;47.788;11.858;2023-04-01T00:08:41;6.90;99.90
26990;DHT22;14537;47.788;11.858;2023-04-01T00:11:06;6.80;99.90
26990;DHT22;14537;47.788;11.858;2023-04-01T00:13:32;6.70;99.90
26990;DHT22;14537;47.788;11.858;2023-04-01T00:15:58;6.60;99.90
26990;DHT22;14537;47.788;11.858;2023-04-01T00:18:24;6.40;99.90
26990;DHT22;14537;47.788;11.858;2023-04-01T00:20:51;6.30;99.90
26990;DHT22;14537;47.788;11.858;2023-04-01T00:23:17;6.20;99.90
26990;DHT22;14537;47.788;11.858;2023-04-01T00:25:44;6.10;99.90
26990;DHT22;14537;47.788;11.858;2023-04-01T00:28:12;6.10;99.90
26990;DHT22;14537;47.788;11.858;2023-04-01T00:30:38;6.00;99.90
26990;DHT22;14537;47.788;11.858;2023-04-01T00:33:03;5.90;99.90
26990;DHT22;14537;47.788;11.858;2023-04-01T00:35:29;6.00;99.90
26990;DHT22;14537;47.788;11.858;2023-04-01T00:37:55;5.90;99.90
26990;DHT22;14537;47.788;11.858;2023-04-01T00:40:36;5.90;99.90
26990;DHT22;14537;47.788;11.858;2023-04-01T00:43:03;6.00;99.90
26990;DHT22;14537;47.788;11.858;2023-04-01T00:45:39;5.90;99.90
26990;DHT22;14537;47.788;11.858;2023-04-01T00:48:11;5.80;99.90
26990;DHT22;14537;47.788;11.858;2023-04-01T00:50:41;5.90;99.90
26990;DHT22;14537;47.788;11.858;2023-04-01T00:53:08;5.90;99.90
26990;DHT22;14537;47.788;11.858;2023-04-01T00:55:37;5.90;99.90
26990;DHT22;14537;47.788;11.858;2023-04-01T00:58:05;5.90;99.90
26990;DHT22;14537;47.788;11.858;2023-04-01T01:00:34;5.90;99.90
26990;DHT22;14537;47.788;11.858;2023-04-01T01:03:00;5.90;99.90
26990;DHT22;14537;47.788;11.858;2023-04-01T01:11:05;5.90;99.90
26990;DHT22;14537;47.788;11.858;2023-04-01T01:13:51;5.90;99.90
26990;DHT22;14537;47.788;11.858;2023-04-01T01:16:29;5.90;99.90
26990;DHT22;14537;47.788;11.858;2023-04-01T01:27:04;5.80;99.90
26990;DHT22;14537;47.788;11.858;2023-04-01T01:32:48;5.80;99.90
26990;DHT22;14537;47.788;11.858;2023-04-01T01:38:11;5.80;99.90
26990;DHT22;14537;47.788;11.858;2023-04-01T01:40:42;5.80;99.90
26990;DHT22;14537;47.788;11.858;2023-04-01T01:43:09;5.80;99.90
26990;DHT22;14537;47.788;11.858;2023-04-01T01:45:37;5.80;99.90
26990;DHT22;14537;47.788;11.858;2023-04-01T01:48:05;5.80;99.90
26990;DHT22;14537;47.788;11.858;2023-04-01T01:50:33;5.80;99.90
26990;DHT22;14537;47.788;11.858;2023-04-01T01:53:07;5.80;99.90
26990;DHT22;14537;47.788;11.858;2023-04-01T01:55:36;5.80;99.90
26990;DHT22;14537;47.788;11.858;2023-04-01T01:58:22;5.70;99.90
26990;DHT22;14537;47.788;11.858;2023-04-01T02:00:55;5.70;99.90
26990;DHT22;14537;47.788;11.858;2023-04-01T02:03:24;5.70;99.90
26990;DHT22;14537;47.788;11.858;2023-04-01T02:05:52;5.80;99.90
26990;DHT22;14537;47.788;11.858;2023-04-01T02:08:29;5.80;99.90
26990;DHT22;14537;47.788;11.858;2023-04-01T02:11:00;5.90;99.90
26990;DHT22;14537;47.788;11.858;2023-04-01T02:13:36;5.90;99.90
26990;DHT22;14537;47.788;11.858;2023-04-01T02:16:27;6.00;99.90
26990;DHT22;14537;47.788;11.858;2023-04-01T02:18:56;6.00;99.90
26990;DHT22;14537;47.788;11.858;2023-04-01T02:21:26;6.10;99.90
26990;DHT22;14537;47.788;11.858;2023-04-01T02:23:53;6.00;99.90
26990;DHT22;14537;47.788;11.858;2023-04-01T02:26:20;6.10;99.90
26990;DHT22;14537;47.788;11.858;2023-04-01T02:28:47;6.10;99.90
26990;DHT22;14537;47.788;11.858;2023-04-01T02:31:14;6.20;99.90
26990;DHT22;14537;47.788;11.858;2023-04-01T02:33:40;6.10;99.90
26990;DHT22;14537;47.788;11.858;2023-04-01T02:36:11;6.10;99.90
26990;DHT22;14537;47.788;11.858;2023-04-01T02:38:37;6.10;99.90
26990;DHT22;14537;47.788;11.858;2023-04-01T02:41:03;6.10;99.90
26990;DHT22;14537;47.788;11.858;2023-04-01T02:43:30;6.20;99.90
26990;DHT22;14537;47.788;11.858;2023-04-01T02:45:56;6.10;99.90
26990;DHT22;14537;47.788;11.858;2023-04-01T02:48:21;6.10;99.90
26990;DHT22;14537;47.788;11.858;2023-04-01T02:50:47;6.10;99.90
26990;DHT22;14537;47.788;11.858;2023-04-01T02:53:13;6.20;99.90
26990;DHT22;14537;47.788;11.858;2023-04-01T02:55:38;6.20;99.90
26990;DHT22;14537;47.788;11.858;2023-04-01T02:58:04;6.30;99.90
26990;DHT22;14537;47.788;11.858;2023-04-01T03:00:30;6.30;99.90
26990;DHT22;14537;47.788;11.858;2023-04-01T03:02:55;6.30;99.90
26990;DHT22;14537;47.788;11.858;2023-04-01T03:05:22;6.40;99.90
26990;DHT22;14537;47.788;11.858;2023-04-01T03:07:48;6.40;99.90
26990;DHT22;14537;47.788;11.858;2023-04-01T03:10:15;6.40;99.90
26990;DHT22;14537;47.788;11.858;2023-04-01T03:12:40;6.40;99.90
26990;DHT22;14537;47.788;11.858;2023-04-01T03:15:08;6.30;99.90
26990;DHT22;14537;47.788;11.858;2023-04-01T03:17:34;6.30;99.90
26990;DHT22;14537;47.788;11.858;2023-04-01T03:20:00;6.30;99.90
26990;DHT22;14537;47.788;11.858;2023-04-01T03:22:25;6.30;99.90
26990;DHT22;14537;47.788;11.858;2023-04-01T03:24:52;6.30;99.90
26990;DHT22;14537;47.788;11.858;2023-04-01T03:27:17;6.30;99.90
26990;DHT22;14537;47.788;11.858;2023-04-01T03:29:43;6.20;99.90
26990;DHT22;14537;47.788;11.858;2023-04-01T03:32:08;6.20;99.90
26990;DHT22;14537;47.788;11.858;2023-04-01T03:34:34;6.20;99.90
26990;DHT22;14537;47.788;11.858;2023-04-01T03:37:00;6.20;99.90
26990;DHT22;14537;47.788;11.858;2023-04-01T03:39:26;6.10;99.90
26990;DHT22;14537;47.788;11.858;2023-04-01T03:41:51;6.20;99.90
26990;DHT22;14537;47.788;11.858;2023-04-01T03:44:17;6.20;99.90
26990;DHT22;14537;47.788;11.858;2023-04-01T03:46:43;6.10;99.90
26990;DHT22;14537;47.788;11.858;2023-04-01T03:49:09;6.10;99.90
26990;DHT22;14537;47.788;11.858;2023-04-01T03:51:40;6.10;99.90
26990;DHT22;14537;47.788;11.858;2023-04-01T03:54:06;6.10;99.90
26990;DHT22;14537;47.788;11.858;2023-04-01T03:56:32;6.00;99.90
26990;DHT22;14537;47.788;11.858;2023-04-01T03:58:58;5.90;99.90
26990;DHT22;14537;47.788;11.858;2023-04-01T04:01:23;5.90;99.90
26990;DHT22;14537;47.788;11.858;2023-04-01T04:03:50;5.90;99.90
26990;DHT22;14537;47.788;11.858;2023-04-01T04:06:17;5.90;99.90
26990;DHT22;14537;47.788;11.858;2023-04-01T04:08:44;5.90;99.90
26990;DHT22;14537;47.788;11.858;2023-04-01T04:11:10;5.90;99.90
26990;DHT22;14537;47.788;11.858;2023-04-01T04:13:36;5.90;99.90
26990;DHT22;14537;47.788;11.858;2023-04-01T04:16:03;5.90;99.90
26990;DHT22;14537;47.788;11.858;2023-04-01T04:18:29;5.90;99.90
26990;DHT22;14537;47.788;11.858;2023-04-01T04:20:55;5.90;99.90
26990;DHT22;14537;47.788;11.858;2023-04-01T04:23:21;5.90;99.90
26990;DHT22;14537;47.788;11.858;2023-04-01T04:26:16;5.90;99.90
26990;DHT22;14537;47.788;11.858;2023-04-01T04:28:42;5.90;99.90
26990;DHT22;14537;47.788;11.858;2023-04-01T04:31:07;5.90;99.90
26990;DHT22;14537;47.788;11.858;2023-04-01T04:33:33;5.90;99.90
26990;DHT22;14537;47.788;11.858;2023-04-01T04:36:00;5.80;99.90
26990;DHT22;14537;47.788;11.858;2023-04-01T04:38:26;5.90;99.90
26990;DHT22;14537;47.788;11.858;2023-04-01T04:40:52;5.90;99.90
26990;DHT22;14537;47.788;11.858;2023-04-01T04:43:18;5.90;99.90
26990;DHT22;14537;47.788;11.858;2023-04-01T04:45:44;5.90;99.90
26990;DHT22;14537;47.788;11.858;2023-04-01T04:48:12;5.90;99.90
26990;DHT22;14537;47.788;11.858;2023-04-01T04:50:49;5.90;99.90
26990;DHT22;14537;47.788;11.858;2023-04-01T04:53:18;5.90;99.90
26990;DHT22;14537;47.788;11.858;2023-04-01T04:55:48;5.90;99.90
26990;DHT22;14537;47.788;11.858;2023-04-01T04:58:15;5.90;99.90
26990;DHT22;14537;47.788;11.858;2023-04-01T05:00:41;5.90;99.90
26990;DHT22;14537;47.788;11.858;2023-04-01T05:03:07;5.90;99.90
26990;DHT22;14537;47.788;11.858;2023-04-01T05:05:33;5.90;99.90
26990;DHT22;14537;47.788;11.858;2023-04-01T05:07:59;5.90;99.90
26990;DHT22;14537;47.788;11.858;2023-04-01T05:10:25;5.90;99.90
26990;DHT22;14537;47.788;11.858;2023-04-01T05:12:51;5.90;99.90
26990;DHT22;14537;47.788;11.858;2023-04-01T05:15:16;5.90;99.90
26990;DHT22;14537;47.788;11.858;2023-04-01T05:17:42;6.00;99.90
26990;DHT22;14537;47.788;11.858;2023-04-01T05:20:08;5.90;99.90
26990;DHT22;14537;47.788;11.858;2023-04-01T05:22:34;5.90;99.90
26990;DHT22;14537;47.788;11.858;2023-04-01T05:24:59;6.00;99.90
26990;DHT22;14537;47.788;11.858;2023-04-01T05:27:25;5.90;99.90
26990;DHT22;14537;47.788;11.858;2023-04-01T05:29:51;6.00;99.90
26990;DHT22;14537;47.788;11.858;2023-04-01T05:32:16;6.10;99.90
26990;DHT22;14537;47.788;11.858;2023-04-01T05:34:42;6.20;99.90
26990;DHT22;14537;47.788;11.858;2023-04-01T05:37:10;6.20;99.90
26990;DHT22;14537;47.788;11.858;2023-04-01T05:39:39;6.20;99.90
26990;DHT22;14537;47.788;11.858;2023-04-01T05:42:06;6.20;99.90
26990;DHT22;14537;47.788;11.858;2023-04-01T05:44:32;6.30;99.90
26990;DHT22;14537;47.788;11.858;2023-04-01T05:46:58;6.30;99.90
26990;DHT22;14537;47.788;11.858;2023-04-01T05:49:23;6.30;99.90
26990;DHT22;14537;47.788;11.858;2023-04-01T05:51:49;6.30;99.90
26990;DHT22;14537;47.788;11.858;2023-04-01T05:54:16;6.30;99.90
26990;DHT22;14537;47.788;11.858;2023-04-01T05:56:42;6.30;99.90
26990;DHT22;14537;47.788;11.858;2023-04-01T05:59:10;6.30;99.90
26990;DHT22;14537;47.788;11.858;2023-04-01T06:01:36;6.40;99.90
26990;DHT22;14537;47.788;11.858;2023-04-01T06:04:02;6.40;99.90
26990;DHT22;14537;47.788;11.858;2023-04-01T06:06:30;6.50;99.90
26990;DHT22;14537;47.788;11.858;2023-04-01T06:09:00;6.50;99.90
26990;DHT22;14537;47.788;11.858;2023-04-01T06:11:35;6.50;99.90
26990;DHT22;14537;47.788;11.858;2023-04-01T06:31:02;6.60;99.90
26990;DHT22;14537;47.788;11.858;2023-04-01T06:53:12;6.90;99.90
26990;DHT22;14537;47.788;11.858;2023-04-01T06:55:37;6.90;99.90
26990;DHT22;14537;47.788;11.858;2023-04-01T06:58:13;7.00;99.90
26990;DHT22;14537;47.788;11.858;2023-04-01T07:00:45;7.00;99.90
26990;DHT22;14537;47.788;11.858;2023-04-01T07:03:40;7.10;99.90
26990;DHT22;14537;47.788;11.858;2023-04-01T07:06:58;7.20;99.90
26990;DHT22;14537;47.788;11.858;2023-04-01T07:09:00;7.30;99.90
26990;DHT22;14537;47.788;11.858;2023-04-01T07:11:35;7.30;99.90
26990;DHT22;14537;47.788;11.858;2023-04-01T07:14:06;7.40;99.90
26990;DHT22;14537;47.788;11.858;2023-04-01T07:22:31;7.50;99.90
26990;DHT22;14537;47.788;11.858;2023-04-01T07:25:03;7.60;99.90
26990;DHT22;14537;47.788;11.858;2023-04-01T07:27:30;7.60;99.90
26990;DHT22;14537;47.788;11.858;2023-04-01T07:29:57;7.60;99.90
26990;DHT22;14537;47.788;11.858;2023-04-01T07:35:44;7.60;99.90
26990;DHT22;14537;47.788;11.858;2023-04-01T07:49:06;7.70;99.90
26990;DHT22;14537;47.788;11.858;2023-04-01T07:54:29;7.70;99.90
26990;DHT22;14537;47.788;11.858;2023-04-01T08:08:19;8.00;99.90
26990;DHT22;14537;47.788;11.858;2023-04-01T08:21:45;8.20;99.90
26990;DHT22;14537;47.788;11.858;2023-04-01T08:24:42;8.30;99.90
26990;DHT22;14537;47.788;11.858;2023-04-01T08:29:50;8.50;99.90
26990;DHT22;14537;47.788;11.858;2023-04-01T08:32:36;8.50;99.90
26990;DHT22;14537;47.788;11.858;2023-04-01T08:37:36;8.70;99.90
26990;DHT22;14537;47.788;11.858;2023-04-01T08:43:15;8.90;99.90
26990;DHT22;14537;47.788;11.858;2023-04-01T08:45:56;8.80;99.90
26990;DHT22;14537;47.788;11.858;2023-04-01T08:57:25;9.20;99.90
26990;DHT22;14537;47.788;11.858;2023-04-01T09:11:10;9.20;99.90
26990;DHT22;14537;47.788;11.858;2023-04-01T09:36:25;10.00;99.90
26990;DHT22;14537;47.788;11.858;2023-04-01T09:58:48;10.70;99.90
26990;DHT22;14537;47.788;11.858;2023-04-01T10:09:59;10.60;99.90
26990;DHT22;14537;47.788;11.858;2023-04-01T10:16:09;10.70;99.90
26990;DHT22;14537;47.788;11.858;2023-04-01T10:44:13;10.70;99.90
26990;DHT22;14537;47.788;11.858;2023-04-01T11:22:57;10.30;99.90
26990;DHT22;14537;47.788;11.858;2023-04-01T11:31:23;10.50;99.90
26990;DHT22;14537;47.788;11.858;2023-04-01T11:34:02;10.60;99.90
26990;DHT22;14537;47.788;11.858;2023-04-01T11:36:57;10.60;99.90
26990;DHT22;14537;47.788;11.858;2023-04-01T11:45:57;10.50;99.90
26990;DHT22;14537;47.788;11.858;2023-04-01T11:54:00;10.40;99.90
26990;DHT22;14537;47.788;11.858;2023-04-01T12:01:51;10.40;99.90
26990;DHT22;14537;47.788;11.858;2023-04-01T12:07:21;10.60;99.90
26990;DHT22;14537;47.788;11.858;2023-04-01T12:18:22;10.40;99.90
26990;DHT22;14537;47.788;11.858;2023-04-01T12:21:00;10.30;99.90
26990;DHT22;14537;47.788;11.858;2023-04-01T12:26:31;9.80;99.90
26990;DHT22;14537;47.788;11.858;2023-04-01T12:38:08;9.20;99.90
26990;DHT22;14537;47.788;11.858;2023-04-01T12:52:00;9.00;99.90
26990;DHT22;14537;47.788;11.858;2023-04-01T12:55:13;8.60;99.90
26990;DHT22;14537;47.788;11.858;2023-04-01T13:15:06;7.70;99.90
26990;DHT22;14537;47.788;11.858;2023-04-01T13:28:39;7.40;99.90
26990;DHT22;14537;47.788;11.858;2023-04-01T13:42:00;7.30;99.90
26990;DHT22;14537;47.788;11.858;2023-04-01T13:44:34;7.40;99.90
26990;DHT22;14537;47.788;11.858;2023-04-01T13:55:47;7.60;99.90
26990;DHT22;14537;47.788;11.858;2023-04-01T14:09:51;7.20;99.90
26990;DHT22;14537;47.788;11.858;2023-04-01T14:15:25;7.20;99.90
26990;DHT22;14537;47.788;11.858;2023-04-01T14:18:18;7.00;99.90
26990;DHT22;14537;47.788;11.858;2023-04-01T14:24:14;7.00;99.90
26990;DHT22;14537;47.788;11.858;2023-04-01T14:45:45;7.10;99.90
26990;DHT22;14537;47.788;11.858;2023-04-01T14:56:42;7.00;99.90
26990;DHT22;14537;47.788;11.858;2023-04-01T14:59:27;7.10;99.90
26990;DHT22;14537;47.788;11.858;2023-04-01T15:18:38;7.00;99.90
26990;DHT22;14537;47.788;11.858;2023-04-01T15:21:36;6.80;99.90
26990;DHT22;14537;47.788;11.858;2023-04-01T15:24:24;6.90;99.90
26990;DHT22;14537;47.788;11.858;2023-04-01T15:27:09;6.90;99.90
26990;DHT22;14537;47.788;11.858;2023-04-01T15:30:06;6.70;99.90
26990;DHT22;14537;47.788;11.858;2023-04-01T15:35:23;6.80;99.90
26990;DHT22;14537;47.788;11.858;2023-04-01T15:37:56;6.90;99.90
26990;DHT22;14537;47.788;11.858;2023-04-01T15:40:48;6.90;99.90
26990;DHT22;14537;47.788;11.858;2023-04-01T15:51:41;7.10;99.90
26990;DHT22;14537;47.788;11.858;2023-04-01T15:54:28;7.20;99.90
26990;DHT22;14537;47.788;11.858;2023-04-01T15:59:56;7.20;99.90
26990;DHT22;14537;47.788;11.858;2023-04-01T16:02:33;7.10;99.90
26990;DHT22;14537;47.788;11.858;2023-04-01T16:08:11;7.00;99.90
26990;DHT22;14537;47.788;11.858;2023-04-01T16:11:04;7.00;99.90
26990;DHT22;14537;47.788;11.858;2023-04-01T16:19:39;6.90;99.90
26990;DHT22;14537;47.788;11.858;2023-04-01T16:22:30;7.00;99.90
26990;DHT22;14537;47.788;11.858;2023-04-01T16:30:43;7.10;99.90
26990;DHT22;14537;47.788;11.858;2023-04-01T16:38:41;7.10;99.90
26990;DHT22;14537;47.788;11.858;2023-04-01T16:41:33;7.10;99.90
26990;DHT22;14537;47.788;11.858;2023-04-01T16:44:20;7.10;99.90
26990;DHT22;14537;47.788;11.858;2023-04-01T16:46:51;7.10;99.90
26990;DHT22;14537;47.788;11.858;2023-04-01T16:49:45;7.00;99.90
26990;DHT22;14537;47.788;11.858;2023-04-01T16:57:23;7.00;99.90
26990;DHT22;14537;47.788;11.858;2023-04-01T17:02:57;7.00;99.90
26990;DHT22;14537;47.788;11.858;2023-04-01T17:08:44;7.00;99.90
26990;DHT22;14537;47.788;11.858;2023-04-01T17:20:12;6.80;99.90
26990;DHT22;14537;47.788;11.858;2023-04-01T17:25:22;6.90;99.90
26990;DHT22;14537;47.788;11.858;2023-04-01T17:33:42;7.00;99.90
26990;DHT22;14537;47.788;11.858;2023-04-01T17:36:31;6.90;99.90
26990;DHT22;14537;47.788;11.858;2023-04-01T17:39:15;7.00;99.90
26990;DHT22;14537;47.788;11.858;2023-04-01T17:44:37;7.00;99.90
26990;DHT22;14537;47.788;11.858;2023-04-01T17:52:53;6.90;99.90
26990;DHT22;14537;47.788;11.858;2023-04-01T17:58:20;6.90;99.90
26990;DHT22;14537;47.788;11.858;2023-04-01T18:06:19;7.00;99.90
26990;DHT22;14537;47.788;11.858;2023-04-01T18:14:31;6.90;99.90
26990;DHT22;14537;47.788;11.858;2023-04-01T18:17:51;6.80;99.90
26990;DHT22;14537;47.788;11.858;2023-04-01T18:20:54;6.80;99.90
26990;DHT22;14537;47.788;11.858;2023-04-01T18:23:28;6.80;99.90
26990;DHT22;14537;47.788;11.858;2023-04-01T18:26:13;6.80;99.90
26990;DHT22;14537;47.788;11.858;2023-04-01T18:28:54;6.80;99.90
26990;DHT22;14537;47.788;11.858;2023-04-01T18:31:24;6.70;99.90
26990;DHT22;14537;47.788;11.858;2023-04-01T18:34:16;6.60;99.90
26990;DHT22;14537;47.788;11.858;2023-04-01T18:36:48;6.70;99.90
26990;DHT22;14537;47.788;11.858;2023-04-01T18:43:00;6.60;99.90
26990;DHT22;14537;47.788;11.858;2023-04-01T18:45:37;6.60;99.90
26990;DHT22;14537;47.788;11.858;2023-04-01T18:48:59;6.60;99.90
26990;DHT22;14537;47.788;11.858;2023-04-01T18:51:38;6.70;99.90
26990;DHT22;14537;47.788;11.858;2023-04-01T18:56:46;6.70;99.90
26990;DHT22;14537;47.788;11.858;2023-04-01T19:04:31;6.60;99.90
26990;DHT22;14537;47.788;11.858;2023-04-01T19:07:19;6.60;99.90
26990;DHT22;14537;47.788;11.858;2023-04-01T19:09:47;6.60;99.90
26990;DHT22;14537;47.788;11.858;2023-04-01T19:12:38;6.60;99.90
26990;DHT22;14537;47.788;11.858;2023-04-01T19:15:20;6.60;99.90
26990;DHT22;14537;47.788;11.858;2023-04-01T19:21:01;6.50;99.90
26990;DHT22;14537;47.788;11.858;2023-04-01T19:24:01;6.50;99.90
26990;DHT22;14537;47.788;11.858;2023-04-01T19:26:58;6.50;99.90
26990;DHT22;14537;47.788;11.858;2023-04-01T19:37:34;6.70;99.90
26990;DHT22;14537;47.788;11.858;2023-04-01T19:45:47;6.80;99.90
26990;DHT22;14537;47.788;11.858;2023-04-01T19:51:31;6.70;99.90
26990;DHT22;14537;47.788;11.858;2023-04-01T19:56:39;6.70;99.90
26990;DHT22;14537;47.788;11.858;2023-04-01T19:59:29;6.70;99.90
26990;DHT22;14537;47.788;11.858;2023-04-01T20:04:34;6.50;99.90
26990;DHT22;14537;47.788;11.858;2023-04-01T20:07:19;6.60;99.90
26990;DHT22;14537;47.788;11.858;2023-04-01T20:13:06;6.60;99.90
26990;DHT22;14537;47.788;11.858;2023-04-01T20:15:45;6.50;99.90
26990;DHT22;14537;47.788;11.858;2023-04-01T20:18:23;6.60;99.90
26990;DHT22;14537;47.788;11.858;2023-04-01T20:20:57;6.60;99.90
26990;DHT22;14537;47.788;11.858;2023-04-01T20:26:11;6.50;99.90
26990;DHT22;14537;47.788;11.858;2023-04-01T20:29:02;6.50;99.90
26990;DHT22;14537;47.788;11.858;2023-04-01T20:31:36;6.50;99.90
26990;DHT22;14537;47.788;11.858;2023-04-01T20:35:14;6.50;99.90
26990;DHT22;14537;47.788;11.858;2023-04-01T20:48:47;6.60;99.90
26990;DHT22;14537;47.788;11.858;2023-04-01T20:51:23;6.50;99.90
26990;DHT22;14537;47.788;11.858;2023-04-01T20:59:25;6.70;99.90
26990;DHT22;14537;47.788;11.858;2023-04-01T21:07:54;6.90;99.90
26990;DHT22;14537;47.788;11.858;2023-04-01T21:10:46;6.90;99.90
26990;DHT22;14537;47.788;11.858;2023-04-01T21:18:30;6.80;99.90
26990;DHT22;14537;47.788;11.858;2023-04-01T21:21:26;6.80;99.90
26990;DHT22;14537;47.788;11.858;2023-04-01T21:23:58;6.90;99.90
26990;DHT22;14537;47.788;11.858;2023-04-01T21:34:44;6.70;99.90
26990;DHT22;14537;47.788;11.858;2023-04-01T21:37:48;6.70;99.90
26990;DHT22;14537;47.788;11.858;2023-04-01T21:40:29;6.60;99.90
26990;DHT22;14537;47.788;11.858;2023-04-01T21:48:47;6.60;99.90
26990;DHT22;14537;47.788;11.858;2023-04-01T22:02:09;6.60;99.90
26990;DHT22;14537;47.788;11.858;2023-04-01T22:04:52;6.50;99.90
26990;DHT22;14537;47.788;11.858;2023-04-01T22:07:33;6.60;99.90
26990;DHT22;14537;47.788;11.858;2023-04-01T22:12:56;6.60;99.90
26990;DHT22;14537;47.788;11.858;2023-04-01T22:21:06;6.50;99.90
26990;DHT22;14537;47.788;11.858;2023-04-01T22:23:45;6.50;99.90
26990;DHT22;14537;47.788;11.858;2023-04-01T22:31:55;6.60;99.90
26990;DHT22;14537;47.788;11.858;2023-04-01T22:37:05;6.60;99.90
26990;DHT22;14537;47.788;11.858;2023-04-01T22:40:27;6.50;99.90
26990;DHT22;14537;47.788;11.858;2023-04-01T22:42:43;6.50;99.90
26990;DHT22;14537;47.788;11.858;2023-04-01T22:50:57;6.50;99.90
26990;DHT22;14537;47.788;11.858;2023-04-01T22:56:05;6.50;99.90
26990;DHT22;14537;47.788;11.858;2023-04-01T22:58:35;6.50;99.90
26990;DHT22;14537;47.788;11.858;2023-04-01T23:01:07;6.40;99.90
26990;DHT22;14537;47.788;11.858;2023-04-01T23:03:40;6.40;99.90
26990;DHT22;14537;47.788;11.858;2023-04-01T23:06:10;6.30;99.90
26990;DHT22;14537;47.788;11.858;2023-04-01T23:11:32;6.30;99.90
26990;DHT22;14537;47.788;11.858;2023-04-01T23:16:39;6.40;99.90
26990;DHT22;14537;47.788;11.858;2023-04-01T23:22:17;6.50;99.90
26990;DHT22;14537;47.788;11.858;2023-04-01T23:24:52;6.50;99.90
26990;DHT22;14537;47.788;11.858;2023-04-01T23:27:31;6.50;99.90
26990;DHT22;14537;47.788;11.858;2023-04-01T23:30:00;6.50;99.90
26990;DHT22;14537;47.788;11.858;2023-04-01T23:32:26;6.50;99.90
26990;DHT22;14537;47.788;11.858;2023-04-01T23:34:54;6.50;99.90
26990;DHT22;14537;47.788;11.858;2023-04-01T23:37:22;6.50;99.90
26990;DHT22;14537;47.788;11.858;2023-04-01T23:39:56;6.50;99.90
26990;DHT22;14537;47.788;11.858;2023-04-01T23:42:37;6.50;99.90
26990;DHT22;14537;47.788;11.858;2023-04-01T23:45:12;6.50;99.90
26990;DHT22;14537;47.788;11.858;2023-04-01T23:47:41;6.60;99.90
26990;DHT22;14537;47.788;11.858;2023-04-01T23:50:12;6.50;99.90
26990;DHT22;14537;47.788;11.858;2023-04-01T23:53:17;6.60;99.90
26990;DHT22;14537;47.788;11.858;2023-04-01T23:55:44;6.60;99.90
